Time;durP1;ratioP1;P1;durP2;ratioP2;P2;SDS_P1;SDS_P2;PMS_P1;PMS_P2;Temp;Humidity;BMP_temperature;BMP_pressure;BME280_temperature;BME280_humidity;BME280_pressure;Samples;Min_cycle;Max_cycle;Signal;HPM_P1;HPM_P2
2022/03/12 00:00:50;;;;;;;12.40;6.78;;;;;;;;;;6147949;23;20013;-88
2022/03/12 00:03:17;;;;;;;12.82;7.10;;;;;;;;;;6147111;23;20044;-87
2022/03/12 00:05:57;;;;;;;14.02;6.82;;;;;;;;;;6148905;23;20024;-88
2022/03/12 00:08:30;;;;;;;15.15;6.90;;;;;;;;;;6147948;23;20013;-87
2022/03/12 00:11:00;;;;;;;12.05;7.80;;;;;;;;;;6147993;23;20402;-88
2022/03/12 00:13:26;;;;;;;14.40;7.00;;;;;;;;;;6124314;23;20068;-88
2022/03/12 00:15:52;;;;;;;12.40;7.28;;;;;;;;;;6123608;23;20053;-87
2022/03/12 00:18:20;;;;;;;16.10;7.55;;;;;;;;;;6123242;23;20017;-88
2022/03/12 00:20:50;;;;;;;13.70;6.97;;;;;;;;;;6149256;23;20022;-86
2022/03/12 00:23:18;;;;;;;19.33;6.82;;;;;;;;;;6125416;23;20120;-87
2022/03/12 00:25:47;;;;;;;9.85;6.97;;;;;;;;;;6124733;23;20017;-88
2022/03/12 00:28:15;;;;;;;13.73;7.03;;;;;;;;;;6147975;23;20021;-87
2022/03/12 00:30:47;;;;;;;15.30;7.00;;;;;;;;;;6148550;23;20024;-88
2022/03/12 00:33:14;;;;;;;11.40;7.10;;;;;;;;;;6147881;23;20350;-88
2022/03/12 00:35:40;;;;;;;18.33;7.28;;;;;;;;;;6126003;23;20024;-87
2022/03/12 00:38:07;;;;;;;10.80;6.38;;;;;;;;;;6146996;23;20124;-88
2022/03/12 00:40:33;;;;;;;12.57;7.53;;;;;;;;;;6121979;23;20009;-88
2022/03/12 00:43:02;;;;;;;12.82;7.20;;;;;;;;;;6149376;23;20060;-88
2022/03/12 00:45:29;;;;;;;12.68;7.18;;;;;;;;;;6124475;23;20110;-87
2022/03/12 00:47:55;;;;;;;13.95;7.18;;;;;;;;;;6123306;23;20099;-87
2022/03/12 00:50:21;;;;;;;17.17;7.35;;;;;;;;;;6124404;23;20019;-88
2022/03/12 00:52:47;;;;;;;13.68;7.22;;;;;;;;;;6123500;23;20456;-88
2022/03/12 00:55:13;;;;;;;11.38;6.82;;;;;;;;;;6124006;23;20048;-88
2022/03/12 00:57:39;;;;;;;15.73;7.20;;;;;;;;;;6146292;23;20009;-87
2022/03/12 01:00:12;;;;;;;17.52;7.30;;;;;;;;;;6123795;23;20458;-87
2022/03/12 01:02:38;;;;;;;12.63;7.65;;;;;;;;;;6147053;23;20462;-88
2022/03/12 01:05:05;;;;;;;16.38;6.53;;;;;;;;;;6147434;23;20067;-88
2022/03/12 01:07:31;;;;;;;14.48;7.00;;;;;;;;;;6123146;23;20017;-86
2022/03/12 01:09:57;;;;;;;15.13;7.47;;;;;;;;;;6124732;23;20040;-88
2022/03/12 01:12:23;;;;;;;13.48;7.20;;;;;;;;;;6121830;23;20017;-87
2022/03/12 01:14:49;;;;;;;11.98;6.90;;;;;;;;;;6147428;23;20386;-88
2022/03/12 01:17:15;;;;;;;12.18;6.85;;;;;;;;;;6146041;23;20045;-87
2022/03/12 01:19:41;;;;;;;15.50;7.03;;;;;;;;;;6122914;23;20013;-86
2022/03/12 01:22:14;;;;;;;13.65;7.13;;;;;;;;;;6122529;23;20482;-88
2022/03/12 01:24:40;;;;;;;12.35;6.85;;;;;;;;;;6123412;23;20024;-88
2022/03/12 01:27:06;;;;;;;20.08;7.45;;;;;;;;;;6124001;23;20022;-87
2022/03/12 01:29:32;;;;;;;12.52;7.20;;;;;;;;;;6125309;23;20021;-88
2022/03/12 01:31:58;;;;;;;12.25;7.38;;;;;;;;;;6146040;23;20013;-88
2022/03/12 01:34:24;;;;;;;12.35;6.72;;;;;;;;;;6124204;23;20020;-88
2022/03/12 01:36:51;;;;;;;10.85;7.00;;;;;;;;;;6122087;23;20016;-88
2022/03/12 01:39:17;;;;;;;13.45;7.47;;;;;;;;;;6097768;23;20143;-87
2022/03/12 01:41:43;;;;;;;11.32;6.80;;;;;;;;;;6120901;23;20013;-87
2022/03/12 01:44:10;;;;;;;9.98;6.70;;;;;;;;;;6125339;23;20025;-88
2022/03/12 01:46:46;;;;;;;14.70;7.15;;;;;;;;;;6146982;23;20032;-88
2022/03/12 01:49:18;;;;;;;12.27;7.38;;;;;;;;;;6147780;23;20215;-88
2022/03/12 01:51:48;;;;;;;11.23;7.30;;;;;;;;;;6145084;23;20020;-88
2022/03/12 01:54:18;;;;;;;12.57;7.50;;;;;;;;;;6146405;23;20837;-88
2022/03/12 01:56:48;;;;;;;11.40;6.60;;;;;;;;;;6146270;23;20024;-88
2022/03/12 01:59:15;;;;;;;14.40;6.88;;;;;;;;;;6147710;23;20009;-86
2022/03/12 02:01:42;;;;;;;13.80;7.03;;;;;;;;;;6122666;23;20021;-88
2022/03/12 02:04:08;;;;;;;14.25;7.10;;;;;;;;;;6123134;23;20008;-86
2022/03/12 02:06:35;;;;;;;9.60;6.40;;;;;;;;;;6146190;23;20017;-88
2022/03/12 02:09:01;;;;;;;11.48;7.68;;;;;;;;;;6147489;23;20055;-86
2022/03/12 02:11:29;;;;;;;13.13;7.57;;;;;;;;;;6146048;23;20021;-87
2022/03/12 02:14:01;;;;;;;11.63;6.85;;;;;;;;;;6123006;23;20017;-87
2022/03/12 02:16:28;;;;;;;14.02;6.97;;;;;;;;;;6146183;23;20028;-87
2022/03/12 02:18:54;;;;;;;11.68;6.63;;;;;;;;;;6124435;23;20328;-88
2022/03/12 02:21:30;;;;;;;14.27;7.20;;;;;;;;;;6122508;23;20062;-88
2022/03/12 02:23:56;;;;;;;13.55;6.97;;;;;;;;;;6147080;23;20016;-89
2022/03/12 02:26:22;;;;;;;11.75;7.20;;;;;;;;;;6122390;23;20016;-88
2022/03/12 02:28:48;;;;;;;12.57;6.93;;;;;;;;;;6145983;23;20017;-87
2022/03/12 02:31:18;;;;;;;11.38;6.90;;;;;;;;;;6122483;23;20304;-88
2022/03/12 02:33:44;;;;;;;10.98;6.88;;;;;;;;;;6121665;23;20024;-88
2022/03/12 02:36:14;;;;;;;13.68;7.80;;;;;;;;;;6145942;23;20044;-87
2022/03/12 02:38:41;;;;;;;16.50;7.53;;;;;;;;;;6147332;23;20088;-88
2022/03/12 02:41:14;;;;;;;13.95;7.90;;;;;;;;;;6121392;23;20025;-88
2022/03/12 02:43:52;;;;;;;12.75;7.32;;;;;;;;;;6123863;23;20477;-89
2022/03/12 02:46:18;;;;;;;11.02;7.10;;;;;;;;;;6145571;23;20458;-87
2022/03/12 02:48:51;;;;;;;12.65;7.68;;;;;;;;;;6124718;23;20668;-88
2022/03/12 02:51:22;;;;;;;13.68;7.72;;;;;;;;;;6147217;23;20481;-88
2022/03/12 02:53:50;;;;;;;13.52;7.90;;;;;;;;;;6150768;23;20020;-87
2022/03/12 02:56:17;;;;;;;16.48;7.68;;;;;;;;;;6149381;23;20072;-87
2022/03/12 02:58:43;;;;;;;11.77;7.53;;;;;;;;;;6149775;23;20517;-88
2022/03/12 03:01:14;;;;;;;14.40;8.00;;;;;;;;;;6124442;23;20453;-87
2022/03/12 03:03:41;;;;;;;12.57;8.00;;;;;;;;;;6148796;23;20013;-87
2022/03/12 03:06:08;;;;;;;13.18;8.27;;;;;;;;;;6148321;23;20052;-87
2022/03/12 03:08:37;;;;;;;12.77;7.80;;;;;;;;;;6124502;23;20013;-88
2022/03/12 03:11:09;;;;;;;12.40;7.70;;;;;;;;;;6147625;23;20056;-87
2022/03/12 03:13:36;;;;;;;12.38;7.28;;;;;;;;;;6148432;23;20017;-88
2022/03/12 03:16:21;;;;;;;14.27;8.02;;;;;;;;;;6124905;23;20028;-87
2022/03/12 03:18:51;;;;;;;13.52;7.55;;;;;;;;;;6148447;23;20561;-88
2022/03/12 03:21:18;;;;;;;10.38;7.63;;;;;;;;;;6148246;23;20017;-88
2022/03/12 03:23:47;;;;;;;12.80;7.85;;;;;;;;;;6148371;23;20339;-88
2022/03/12 03:26:14;;;;;;;15.77;7.88;;;;;;;;;;6149474;23;20024;-87
2022/03/12 03:28:41;;;;;;;14.27;7.35;;;;;;;;;;6150501;23;20016;-87
2022/03/12 03:31:08;;;;;;;12.70;7.78;;;;;;;;;;6149316;23;20457;-88
2022/03/12 03:33:34;;;;;;;15.05;8.48;;;;;;;;;;6149378;23;20028;-88
2022/03/12 03:36:00;;;;;;;11.82;7.85;;;;;;;;;;6148500;23;20458;-87
2022/03/12 03:38:26;;;;;;;13.45;7.70;;;;;;;;;;6148464;23;20051;-88
2022/03/12 03:40:52;;;;;;;13.07;7.72;;;;;;;;;;6148826;23;20070;-88
2022/03/12 03:43:20;;;;;;;12.27;7.57;;;;;;;;;;6123413;23;20017;-88
2022/03/12 03:45:48;;;;;;;14.50;7.95;;;;;;;;;;6149921;23;20028;-87
2022/03/12 03:48:19;;;;;;;10.95;6.95;;;;;;;;;;6148661;23;20017;-88
2022/03/12 03:50:46;;;;;;;18.23;7.10;;;;;;;;;;6147912;23;20099;-87
2022/03/12 03:53:18;;;;;;;12.43;7.30;;;;;;;;;;6149491;23;20025;-88
2022/03/12 03:55:45;;;;;;;11.00;7.15;;;;;;;;;;6148239;23;20087;-87
2022/03/12 03:58:15;;;;;;;15.02;7.65;;;;;;;;;;6123459;23;20016;-86
2022/03/12 04:00:57;;;;;;;14.57;6.93;;;;;;;;;;6146421;23;20009;-87
2022/03/12 04:03:24;;;;;;;15.00;7.55;;;;;;;;;;6148560;23;20044;-88
2022/03/12 04:05:50;;;;;;;12.20;7.32;;;;;;;;;;6147876;23;20017;-89
2022/03/12 04:08:16;;;;;;;12.68;6.38;;;;;;;;;;6097436;23;20013;-88
2022/03/12 04:10:46;;;;;;;11.32;7.22;;;;;;;;;;6099989;23;20445;-88
2022/03/12 04:13:13;;;;;;;17.83;7.18;;;;;;;;;;6147508;23;20016;-88
2022/03/12 04:15:40;;;;;;;11.27;7.50;;;;;;;;;;6148441;23;20044;-87
2022/03/12 04:18:07;;;;;;;12.68;7.45;;;;;;;;;;6123646;23;20079;-88
2022/03/12 04:20:34;;;;;;;13.38;6.90;;;;;;;;;;6148256;23;20084;-88
2022/03/12 04:23:00;;;;;;;14.40;7.18;;;;;;;;;;6123510;23;20310;-88
2022/03/12 04:25:31;;;;;;;16.48;8.02;;;;;;;;;;6147326;23;20070;-88
2022/03/12 04:27:57;;;;;;;11.43;6.93;;;;;;;;;;6148930;23;20020;-88
2022/03/12 04:30:23;;;;;;;13.15;7.15;;;;;;;;;;6148387;23;20059;-88
2022/03/12 04:32:49;;;;;;;12.25;7.50;;;;;;;;;;6123607;23;20358;-87
2022/03/12 04:35:19;;;;;;;9.48;6.82;;;;;;;;;;6123589;23;20099;-88
2022/03/12 04:37:46;;;;;;;12.18;6.70;;;;;;;;;;6146495;23;20009;-88
2022/03/12 04:40:16;;;;;;;9.75;6.63;;;;;;;;;;6164998;23;20075;-86
2022/03/12 04:42:44;;;;;;;15.30;6.88;;;;;;;;;;6168413;23;20020;-88
2022/03/12 04:45:14;;;;;;;15.90;7.82;;;;;;;;;;6147006;23;20144;-88
2022/03/12 04:47:44;;;;;;;11.88;7.10;;;;;;;;;;6146728;23;20017;-87
2022/03/12 04:50:12;;;;;;;12.32;6.68;;;;;;;;;;6148399;23;20258;-88
2022/03/12 04:52:40;;;;;;;11.20;6.80;;;;;;;;;;6147327;23;20021;-87
2022/03/12 04:55:07;;;;;;;10.43;7.22;;;;;;;;;;6147295;23;20017;-88
2022/03/12 04:57:34;;;;;;;14.10;7.32;;;;;;;;;;6145417;23;20308;-88
2022/03/12 05:00:03;;;;;;;9.75;6.25;;;;;;;;;;6121235;23;20031;-88
2022/03/12 05:02:29;;;;;;;12.77;7.10;;;;;;;;;;6147431;23;20013;-88
2022/03/12 05:04:55;;;;;;;12.80;6.90;;;;;;;;;;6122361;23;20075;-88
2022/03/12 05:07:24;;;;;;;10.93;6.43;;;;;;;;;;6123717;23;20016;-88
2022/03/12 05:09:51;;;;;;;9.65;6.22;;;;;;;;;;6145797;23;20454;-87
2022/03/12 05:12:18;;;;;;;16.08;7.25;;;;;;;;;;6146489;23;20014;-87
2022/03/12 05:14:48;;;;;;;11.27;7.10;;;;;;;;;;6123475;23;20159;-87
2022/03/12 05:17:16;;;;;;;11.27;6.65;;;;;;;;;;6144900;23;20497;-88
2022/03/12 05:19:42;;;;;;;13.77;6.75;;;;;;;;;;6145920;23;20100;-87
2022/03/12 05:22:09;;;;;;;13.60;6.93;;;;;;;;;;6123218;23;20010;-87
2022/03/12 05:24:35;;;;;;;12.85;6.88;;;;;;;;;;6124210;23;20017;-89
2022/03/12 05:27:04;;;;;;;10.13;6.70;;;;;;;;;;6123783;23;20021;-88
2022/03/12 05:29:31;;;;;;;12.50;6.63;;;;;;;;;;6147900;23;20024;-88
2022/03/12 05:31:57;;;;;;;15.07;7.05;;;;;;;;;;6123360;23;20329;-88
2022/03/12 05:34:23;;;;;;;13.32;6.70;;;;;;;;;;6123257;23;20025;-87
2022/03/12 05:36:50;;;;;;;9.68;6.57;;;;;;;;;;6147389;23;20020;-88
2022/03/12 05:39:17;;;;;;;13.32;6.85;;;;;;;;;;6147017;23;20017;-88
2022/03/12 05:41:44;;;;;;;12.98;6.85;;;;;;;;;;6123478;23;20029;-88
2022/03/12 05:44:14;;;;;;;10.40;6.75;;;;;;;;;;6122673;23;20084;-88
2022/03/12 05:46:41;;;;;;;11.13;6.65;;;;;;;;;;6145815;23;20024;-88
2022/03/12 05:49:08;;;;;;;12.63;6.55;;;;;;;;;;6123477;23;20407;-87
2022/03/12 05:51:36;;;;;;;12.07;6.60;;;;;;;;;;6146619;23;20023;-88
2022/03/12 05:54:02;;;;;;;14.55;6.47;;;;;;;;;;6145941;23;20017;-89
2022/03/12 05:56:28;;;;;;;13.70;6.93;;;;;;;;;;6121302;23;20357;-88
2022/03/12 05:58:54;;;;;;;15.60;6.82;;;;;;;;;;6122052;23;20466;-88
2022/03/12 06:01:20;;;;;;;11.70;7.13;;;;;;;;;;6115808;23;20197;-88
2022/03/12 06:03:47;;;;;;;9.70;6.93;;;;;;;;;;6110512;23;20331;-88
2022/03/12 06:06:14;;;;;;;12.48;6.80;;;;;;;;;;6146427;23;20099;-88
2022/03/12 06:08:40;;;;;;;16.30;7.60;;;;;;;;;;6147421;23;20450;-88
2022/03/12 06:11:06;;;;;;;11.80;6.97;;;;;;;;;;6145738;23;20716;-88
2022/03/12 06:13:33;;;;;;;13.20;6.53;;;;;;;;;;6146130;23;20051;-88
2022/03/12 06:16:01;;;;;;;11.02;6.28;;;;;;;;;;6144019;23;20529;-88
2022/03/12 06:18:37;;;;;;;15.05;7.00;;;;;;;;;;6146105;23;20592;-88
2022/03/12 06:21:05;;;;;;;11.93;6.90;;;;;;;;;;6148555;23;20024;-88
2022/03/12 06:23:31;;;;;;;16.10;6.32;;;;;;;;;;6148977;23;20513;-89
2022/03/12 06:25:58;;;;;;;11.60;6.63;;;;;;;;;;6146620;23;20025;-88
2022/03/12 06:28:25;;;;;;;13.98;6.45;;;;;;;;;;6146698;23;20443;-88
2022/03/12 06:30:53;;;;;;;10.57;5.95;;;;;;;;;;6121937;23;20056;-88
2022/03/12 06:33:20;;;;;;;9.52;6.25;;;;;;;;;;6145279;23;20446;-88
2022/03/12 06:35:47;;;;;;;11.27;6.57;;;;;;;;;;6145704;23;20071;-88
2022/03/12 06:38:14;;;;;;;11.15;6.72;;;;;;;;;;6145481;23;20443;-89
2022/03/12 06:40:41;;;;;;;14.15;6.90;;;;;;;;;;6146732;23;20391;-89
2022/03/12 06:43:18;;;;;;;11.15;6.38;;;;;;;;;;6121251;23;20017;-88
2022/03/12 06:45:44;;;;;;;14.93;6.75;;;;;;;;;;6143684;23;20024;-89
2022/03/12 06:48:11;;;;;;;11.77;6.90;;;;;;;;;;6146502;23;20024;-88
2022/03/12 06:50:37;;;;;;;11.15;6.63;;;;;;;;;;6120793;23;20021;-88
2022/03/12 06:53:04;;;;;;;17.45;7.55;;;;;;;;;;6122860;23;20017;-88
2022/03/12 06:55:31;;;;;;;13.38;6.88;;;;;;;;;;6145385;23;20036;-86
2022/03/12 06:57:58;;;;;;;19.15;7.05;;;;;;;;;;6120987;23;20013;-88
2022/03/12 07:00:25;;;;;;;12.10;7.35;;;;;;;;;;6122950;23;20015;-87
2022/03/12 07:02:51;;;;;;;13.25;7.05;;;;;;;;;;6144396;23;20064;-88
2022/03/12 07:05:17;;;;;;;14.85;8.07;;;;;;;;;;6120830;23;20475;-88
2022/03/12 07:07:44;;;;;;;14.07;7.35;;;;;;;;;;6146857;23;20013;-88
2022/03/12 07:10:10;;;;;;;15.30;7.00;;;;;;;;;;6122119;23;20105;-86
2022/03/12 07:12:37;;;;;;;11.23;7.10;;;;;;;;;;6122991;23;20494;-88
2022/03/12 07:15:05;;;;;;;13.18;7.13;;;;;;;;;;6121994;23;20067;-87
2022/03/12 07:17:31;;;;;;;13.85;7.38;;;;;;;;;;6146505;23;20405;-88
2022/03/12 07:19:57;;;;;;;16.08;7.15;;;;;;;;;;6121935;23;20128;-88
2022/03/12 07:22:24;;;;;;;13.15;7.15;;;;;;;;;;6145644;23;20009;-88
2022/03/12 07:24:50;;;;;;;11.52;7.18;;;;;;;;;;6122483;23;20604;-88
2022/03/12 07:27:16;;;;;;;10.82;6.88;;;;;;;;;;6145670;23;20032;-88
2022/03/12 07:29:42;;;;;;;14.57;7.35;;;;;;;;;;6121585;23;20470;-88
2022/03/12 07:32:08;;;;;;;10.82;7.30;;;;;;;;;;6119929;23;20052;-87
2022/03/12 07:34:35;;;;;;;13.52;7.20;;;;;;;;;;6148400;23;20021;-88
2022/03/12 07:37:01;;;;;;;14.45;7.22;;;;;;;;;;6146777;23;20355;-87
2022/03/12 07:39:27;;;;;;;13.77;7.68;;;;;;;;;;6149088;23;20465;-89
2022/03/12 07:41:53;;;;;;;10.48;6.75;;;;;;;;;;6121505;23;20016;-88
2022/03/12 07:44:19;;;;;;;17.17;7.50;;;;;;;;;;6119405;23;20037;-88
2022/03/12 07:46:46;;;;;;;17.38;7.85;;;;;;;;;;6149352;23;20016;-88
2022/03/12 07:49:13;;;;;;;11.32;7.22;;;;;;;;;;6148717;23;20389;-87
2022/03/12 07:51:43;;;;;;;16.27;7.57;;;;;;;;;;6148013;23;20013;-87
2022/03/12 07:54:09;;;;;;;12.57;7.45;;;;;;;;;;6148584;23;20013;-88
2022/03/12 07:56:36;;;;;;;13.07;7.47;;;;;;;;;;6121328;23;20074;-88
2022/03/12 07:59:02;;;;;;;13.07;8.10;;;;;;;;;;6122307;23;20145;-88
2022/03/12 08:01:28;;;;;;;15.25;8.00;;;;;;;;;;6123149;23;20044;-86
2022/03/12 08:03:55;;;;;;;17.98;7.97;;;;;;;;;;6122611;23;20020;-88
2022/03/12 08:06:21;;;;;;;15.95;7.95;;;;;;;;;;6146716;23;20055;-88
2022/03/12 08:08:48;;;;;;;13.90;7.63;;;;;;;;;;6149157;23;20032;-87
2022/03/12 08:11:28;;;;;;;15.57;7.97;;;;;;;;;;6124636;23;20019;-87
2022/03/12 08:14:02;;;;;;;17.83;7.75;;;;;;;;;;6151022;23;20024;-87
2022/03/12 08:16:33;;;;;;;16.17;8.00;;;;;;;;;;6150263;23;20020;-88
2022/03/12 08:19:00;;;;;;;12.65;7.88;;;;;;;;;;6125015;23;20381;-88
2022/03/12 08:21:36;;;;;;;15.38;7.80;;;;;;;;;;6153285;23;20092;-88
2022/03/12 08:24:03;;;;;;;15.60;8.30;;;;;;;;;;6130851;23;20158;-87
2022/03/12 08:26:29;;;;;;;11.82;7.68;;;;;;;;;;6153433;23;20351;-86
2022/03/12 08:28:56;;;;;;;11.82;7.60;;;;;;;;;;6154648;23;20025;-87
2022/03/12 08:31:22;;;;;;;18.45;8.35;;;;;;;;;;6131492;23;20065;-86
2022/03/12 08:33:48;;;;;;;15.55;8.95;;;;;;;;;;6157287;23;20027;-88
2022/03/12 08:36:15;;;;;;;15.23;8.75;;;;;;;;;;6153566;23;20026;-87
2022/03/12 08:38:42;;;;;;;14.35;8.55;;;;;;;;;;6153861;23;20092;-86
2022/03/12 08:41:09;;;;;;;14.43;8.65;;;;;;;;;;6152131;23;20017;-87
2022/03/12 08:43:36;;;;;;;14.43;8.55;;;;;;;;;;6154116;23;20107;-87
2022/03/12 08:46:04;;;;;;;13.75;8.27;;;;;;;;;;6125166;23;20243;-87
2022/03/12 08:48:39;;;;;;;12.23;7.68;;;;;;;;;;6150687;23;20067;-87
2022/03/12 08:51:06;;;;;;;13.35;8.32;;;;;;;;;;6149634;23;20092;-87
2022/03/12 08:53:33;;;;;;;17.55;9.93;;;;;;;;;;6125038;23;20013;-88
2022/03/12 08:56:00;;;;;;;12.73;8.45;;;;;;;;;;6149792;23;20051;-86
2022/03/12 08:58:39;;;;;;;14.13;8.80;;;;;;;;;;6150486;23;20354;-87
2022/03/12 09:01:14;;;;;;;16.48;8.77;;;;;;;;;;6150818;23;20049;-86
2022/03/12 09:03:40;;;;;;;12.85;8.40;;;;;;;;;;6149574;23;20009;-86
2022/03/12 09:06:07;;;;;;;12.02;8.25;;;;;;;;;;6149024;23;20016;-85
2022/03/12 09:08:41;;;;;;;14.20;8.77;;;;;;;;;;6150578;23;20096;-87
2022/03/12 09:11:10;;;;;;;17.98;8.30;;;;;;;;;;6150562;23;20017;-87
2022/03/12 09:13:36;;;;;;;14.82;7.90;;;;;;;;;;6148056;23;20017;-87
2022/03/12 09:16:05;;;;;;;13.48;8.23;;;;;;;;;;6124230;23;20498;-87
2022/03/12 09:18:39;;;;;;;13.57;8.52;;;;;;;;;;6152476;23;20017;-87
2022/03/12 09:21:05;;;;;;;15.27;8.73;;;;;;;;;;6148470;23;20506;-88
2022/03/12 09:23:42;;;;;;;;;;;;;;;;;;;;;
2022/03/12 09:26:12;;;;;;;12.50;8.27;;;;;;;;;;6174233;23;20025;-87
2022/03/12 09:28:41;;;;;;;12.35;8.30;;;;;;;;;;6148813;23;20071;-88
2022/03/12 09:31:11;;;;;;;15.77;9.43;;;;;;;;;;6149566;23;20017;-87
2022/03/12 09:33:38;;;;;;;12.65;8.40;;;;;;;;;;6149310;23;20024;-87
2022/03/12 09:36:09;;;;;;;12.82;8.13;;;;;;;;;;6146975;23;20021;-88
2022/03/12 09:38:36;;;;;;;15.88;9.27;;;;;;;;;;6100955;23;20009;-88
2022/03/12 09:41:02;;;;;;;16.42;8.93;;;;;;;;;;6149186;23;20017;-87
2022/03/12 09:45:57;;;;;;;15.88;9.18;;;;;;;;;;6235593;23;20028;-88
2022/03/12 09:48:23;;;;;;;17.45;9.43;;;;;;;;;;6209314;23;20027;-84
2022/03/12 09:50:55;;;;;;;17.25;9.23;;;;;;;;;;6183656;23;20654;-87
2022/03/12 09:53:25;;;;;;;17.15;8.93;;;;;;;;;;6184933;23;20023;-86
2022/03/12 09:55:51;;;;;;;20.33;9.13;;;;;;;;;;6187269;23;20008;-85
2022/03/12 09:58:17;;;;;;;13.98;9.07;;;;;;;;;;6209755;23;20031;-86
2022/03/12 10:00:44;;;;;;;14.02;9.77;;;;;;;;;;6208515;23;20012;-86
2022/03/12 10:03:10;;;;;;;17.65;9.32;;;;;;;;;;6208487;23;20015;-86
2022/03/12 10:05:36;;;;;;;14.85;9.10;;;;;;;;;;6182699;23;20012;-84
2022/03/12 10:08:03;;;;;;;15.63;9.38;;;;;;;;;;6185939;23;20441;-85
2022/03/12 10:10:30;;;;;;;12.45;8.93;;;;;;;;;;6183779;23;20016;-85
2022/03/12 10:12:56;;;;;;;20.42;10.30;;;;;;;;;;6207845;23;20051;-87
2022/03/12 10:15:22;;;;;;;13.43;9.63;;;;;;;;;;6183648;23;20016;-86
2022/03/12 10:17:52;;;;;;;15.85;9.60;;;;;;;;;;6184318;23;20016;-86
2022/03/12 10:20:18;;;;;;;14.00;9.52;;;;;;;;;;6208790;23;20142;-83
2022/03/12 10:22:45;;;;;;;14.05;9.25;;;;;;;;;;6183777;23;20062;-86
2022/03/12 10:25:12;;;;;;;14.27;9.27;;;;;;;;;;6209072;23;20016;-86
2022/03/12 10:27:39;;;;;;;15.45;9.10;;;;;;;;;;6211214;23;20016;-86
2022/03/12 10:30:07;;;;;;;13.80;8.75;;;;;;;;;;6189592;23;20016;-86
2022/03/12 10:32:41;;;;;;;14.63;9.60;;;;;;;;;;6209224;23;20357;-87
2022/03/12 10:35:08;;;;;;;14.05;9.07;;;;;;;;;;6213135;23;20012;-84
2022/03/12 10:37:35;;;;;;;15.48;9.57;;;;;;;;;;6209781;23;20022;-86
2022/03/12 10:40:06;;;;;;;14.43;8.80;;;;;;;;;;6210012;23;20042;-86
2022/03/12 10:42:32;;;;;;;13.77;8.68;;;;;;;;;;6209585;23;20016;-86
2022/03/12 10:45:09;;;;;;;14.90;10.18;;;;;;;;;;6260095;22;20016;-85
2022/03/12 10:47:39;;;;;;;15.32;9.63;;;;;;;;;;6209197;23;20461;-85
2022/03/12 10:50:07;;;;;;;12.88;9.23;;;;;;;;;;6209539;23;20020;-85
2022/03/12 10:52:34;;;;;;;15.00;9.70;;;;;;;;;;6206958;23;20099;-87
2022/03/12 10:55:07;;;;;;;14.55;9.80;;;;;;;;;;6209585;23;20018;-88
2022/03/12 10:57:34;;;;;;;16.52;10.05;;;;;;;;;;6208006;23;20018;-86
2022/03/12 11:00:00;;;;;;;13.13;10.23;;;;;;;;;;6208466;23;20012;-84
2022/03/12 11:02:26;;;;;;;14.27;10.13;;;;;;;;;;6182461;23;20012;-87
2022/03/12 11:04:53;;;;;;;15.32;10.13;;;;;;;;;;6210409;23;20019;-87
2022/03/12 11:07:24;;;;;;;21.85;11.02;;;;;;;;;;6183589;23;20012;-84
2022/03/12 11:09:50;;;;;;;16.15;9.57;;;;;;;;;;6259657;22;20027;-85
2022/03/12 11:12:38;;;;;;;14.00;9.50;;;;;;;;;;6209812;23;20020;-86
2022/03/12 11:15:11;;;;;;;14.50;9.50;;;;;;;;;;6260702;22;20051;-87
2022/03/12 11:17:44;;;;;;;13.07;9.38;;;;;;;;;;6183986;23;20023;-85
2022/03/12 11:20:16;;;;;;;16.70;10.13;;;;;;;;;;6210027;23;20008;-86
2022/03/12 11:22:55;;;;;;;14.57;10.27;;;;;;;;;;6209086;23;20098;-87
2022/03/12 11:25:32;;;;;;;18.08;10.05;;;;;;;;;;6209291;23;20020;-85
2022/03/12 11:28:04;;;;;;;14.88;9.98;;;;;;;;;;6210977;23;20098;-87
2022/03/12 11:30:31;;;;;;;15.43;9.73;;;;;;;;;;6210354;23;20082;-86
2022/03/12 11:33:07;;;;;;;13.85;9.15;;;;;;;;;;6185603;23;20016;-86
2022/03/12 11:35:45;;;;;;;13.82;9.38;;;;;;;;;;6210044;23;20528;-87
2022/03/12 11:38:21;;;;;;;14.25;9.43;;;;;;;;;;6212851;23;20055;-86
2022/03/12 11:40:49;;;;;;;16.20;10.18;;;;;;;;;;6210937;23;20315;-86
2022/03/12 11:43:24;;;;;;;18.05;9.60;;;;;;;;;;6209394;23;20289;-85
2022/03/12 11:45:53;;;;;;;16.55;9.73;;;;;;;;;;6210293;23;20380;-84
2022/03/12 11:48:19;;;;;;;11.90;8.55;;;;;;;;;;6209251;23;20568;-87
2022/03/12 11:50:46;;;;;;;13.25;8.82;;;;;;;;;;6186053;23;20020;-86
2022/03/12 11:53:16;;;;;;;11.90;8.95;;;;;;;;;;6183591;23;20016;-86
2022/03/12 11:55:43;;;;;;;14.70;9.43;;;;;;;;;;6210616;23;20403;-85
2022/03/12 11:58:09;;;;;;;20.00;9.90;;;;;;;;;;6209497;23;20392;-87
2022/03/12 12:00:35;;;;;;;15.05;10.30;;;;;;;;;;6185676;23;20008;-87
2022/03/12 12:03:01;;;;;;;14.88;9.65;;;;;;;;;;6185074;23;20023;-86
2022/03/12 12:05:29;;;;;;;13.52;8.70;;;;;;;;;;6185140;23;20016;-88
2022/03/12 12:07:55;;;;;;;13.52;9.23;;;;;;;;;;6209695;23;20019;-86
2022/03/12 12:10:29;;;;;;;14.18;9.30;;;;;;;;;;6185297;23;20102;-87
2022/03/12 12:13:14;;;;;;;12.38;8.32;;;;;;;;;;6183924;23;20016;-86
2022/03/12 12:15:45;;;;;;;14.25;7.70;;;;;;;;;;6210098;23;20428;-87
2022/03/12 12:18:12;;;;;;;15.65;8.80;;;;;;;;;;6209368;23;20016;-85
2022/03/12 12:20:39;;;;;;;13.50;8.50;;;;;;;;;;6210388;23;20008;-87
2022/03/12 12:23:06;;;;;;;16.98;8.35;;;;;;;;;;6207198;23;20372;-87
2022/03/12 12:25:35;;;;;;;10.98;7.93;;;;;;;;;;6209591;23;20422;-86
2022/03/12 12:28:13;;;;;;;14.75;8.00;;;;;;;;;;6210144;23;20020;-85
2022/03/12 12:30:44;;;;;;;11.57;7.80;;;;;;;;;;6209142;23;20081;-87
2022/03/12 12:33:14;;;;;;;14.80;7.22;;;;;;;;;;6208837;23;20022;-85
2022/03/12 12:35:43;;;;;;;11.45;8.00;;;;;;;;;;6207850;23;20035;-86
2022/03/12 12:38:13;;;;;;;10.77;7.15;;;;;;;;;;6183844;23;20023;-87
2022/03/12 12:40:43;;;;;;;14.02;8.02;;;;;;;;;;6185606;23;20263;-87
2022/03/12 12:43:12;;;;;;;10.95;7.60;;;;;;;;;;6209239;23;20080;-87
2022/03/12 12:45:53;;;;;;;13.82;7.80;;;;;;;;;;6209718;23;20020;-88
2022/03/12 12:48:38;;;;;;;12.80;8.10;;;;;;;;;;6208008;23;20051;-87
2022/03/12 12:51:06;;;;;;;11.38;7.72;;;;;;;;;;6182808;23;20095;-89
2022/03/12 12:53:36;;;;;;;14.13;7.88;;;;;;;;;;6205977;23;20024;-87
2022/03/12 12:56:21;;;;;;;13.35;7.80;;;;;;;;;;6231674;23;20038;-87
2022/03/12 12:58:54;;;;;;;13.02;7.80;;;;;;;;;;6208151;23;20030;-87
2022/03/12 13:01:25;;;;;;;14.27;8.55;;;;;;;;;;6207130;23;20101;-87
2022/03/12 13:03:52;;;;;;;15.32;8.20;;;;;;;;;;6207363;23;20018;-88
2022/03/12 13:06:30;;;;;;;12.57;8.02;;;;;;;;;;6207967;23;20020;-86
2022/03/12 13:08:58;;;;;;;15.10;8.15;;;;;;;;;;6207590;23;20016;-89
2022/03/12 13:11:28;;;;;;;18.27;8.13;;;;;;;;;;6182754;23;20012;-86
2022/03/12 13:13:55;;;;;;;12.60;7.93;;;;;;;;;;6258930;22;20019;-86
2022/03/12 13:16:21;;;;;;;12.57;8.23;;;;;;;;;;6205739;23;20048;-86
2022/03/12 13:18:48;;;;;;;14.25;7.68;;;;;;;;;;6210227;23;20016;-86
2022/03/12 13:21:30;;;;;;;13.13;7.40;;;;;;;;;;6182318;23;20441;-87
2022/03/12 13:23:57;;;;;;;13.15;8.32;;;;;;;;;;6258951;22;20008;-87
2022/03/12 13:26:26;;;;;;;10.80;7.55;;;;;;;;;;6207469;23;20016;-86
2022/03/12 13:28:53;;;;;;;15.07;8.55;;;;;;;;;;6208741;23;20022;-85
2022/03/12 13:31:28;;;;;;;11.10;7.00;;;;;;;;;;6206563;23;20012;-87
2022/03/12 13:33:56;;;;;;;10.75;7.13;;;;;;;;;;6201858;23;20015;-86
2022/03/12 13:36:24;;;;;;;11.65;7.57;;;;;;;;;;6204882;23;20528;-86
2022/03/12 13:38:52;;;;;;;12.13;7.38;;;;;;;;;;6205140;23;20039;-86
2022/03/12 13:41:18;;;;;;;11.57;7.25;;;;;;;;;;6207528;23;20023;-87
2022/03/12 13:43:46;;;;;;;13.00;6.95;;;;;;;;;;6180193;22;20016;-86
2022/03/12 13:46:12;;;;;;;11.68;6.45;;;;;;;;;;6204651;23;20458;-87
2022/03/12 13:48:39;;;;;;;9.75;6.53;;;;;;;;;;6202731;23;20457;-86
2022/03/12 13:51:06;;;;;;;10.80;6.90;;;;;;;;;;6183565;23;20027;-87
2022/03/12 13:53:32;;;;;;;10.32;6.85;;;;;;;;;;6210148;23;20330;-87
2022/03/12 13:56:18;;;;;;;8.68;6.35;;;;;;;;;;6182494;23;20483;-86
2022/03/12 13:58:46;;;;;;;14.60;6.85;;;;;;;;;;6208525;23;20314;-87
2022/03/12 14:01:29;;;;;;;12.07;7.32;;;;;;;;;;6207894;23;20065;-86
2022/03/12 14:03:56;;;;;;;9.20;5.95;;;;;;;;;;6207690;23;20016;-88
2022/03/12 14:06:44;;;;;;;11.15;6.78;;;;;;;;;;6257380;22;20016;-86
2022/03/12 14:09:11;;;;;;;10.55;5.85;;;;;;;;;;6207973;23;20371;-86
2022/03/12 14:11:48;;;;;;;14.68;6.80;;;;;;;;;;6206999;23;20207;-86
2022/03/12 14:14:15;;;;;;;8.80;5.35;;;;;;;;;;6207697;23;20378;-87
2022/03/12 14:16:45;;;;;;;7.95;5.63;;;;;;;;;;6207664;23;20012;-85
2022/03/12 14:19:13;;;;;;;10.82;5.70;;;;;;;;;;6207617;23;20536;-85
2022/03/12 14:21:49;;;;;;;14.75;5.68;;;;;;;;;;6207763;23;20535;-87
2022/03/12 14:24:19;;;;;;;9.63;5.75;;;;;;;;;;6211212;23;20023;-86
2022/03/12 14:26:48;;;;;;;12.80;5.07;;;;;;;;;;6213921;23;20047;-87
2022/03/12 14:29:16;;;;;;;10.27;5.43;;;;;;;;;;6208776;23;20023;-86
2022/03/12 14:31:42;;;;;;;7.90;5.40;;;;;;;;;;6183365;23;20368;-86
2022/03/12 14:34:10;;;;;;;9.77;4.00;;;;;;;;;;6207908;23;20388;-86
2022/03/12 14:36:40;;;;;;;8.82;4.70;;;;;;;;;;6206723;23;20009;-87
2022/03/12 14:39:06;;;;;;;10.25;5.68;;;;;;;;;;6208415;23;20019;-87
2022/03/12 14:41:33;;;;;;;13.52;5.25;;;;;;;;;;6178812;23;20012;-86